createdAt,value
2018-02-24T00:01:42.556Z,12.30
2018-02-24T00:04:10.854Z,12.40
2018-02-24T00:06:39.130Z,12.70
2018-02-24T00:09:07.438Z,14.03
2018-02-24T00:11:35.002Z,12.83
2018-02-24T00:14:02.510Z,12.57
2018-02-24T00:16:30.035Z,11.43
2018-02-24T00:18:57.557Z,12.60
2018-02-24T00:21:25.963Z,12.53
2018-02-24T00:23:53.481Z,12.87
2018-02-24T00:26:21.001Z,11.90
2018-02-24T00:28:48.529Z,13.70
2018-02-24T00:31:16.088Z,12.30
2018-02-24T00:33:43.607Z,13.03
2018-02-24T00:36:11.126Z,13.73
2018-02-24T00:38:38.627Z,12.73
2018-02-24T00:41:06.249Z,13.13
2018-02-24T00:43:33.890Z,12.43
2018-02-24T00:46:01.419Z,13.93
2018-02-24T00:48:29.694Z,12.50
2018-02-24T00:50:58.982Z,13.80
2018-02-24T00:53:26.566Z,15.47
2018-02-24T00:55:54.841Z,13.93
2018-02-24T00:58:23.119Z,13.60
2018-02-24T01:00:51.397Z,13.80
2018-02-24T01:03:19.687Z,13.57
2018-02-24T01:05:47.217Z,13.80
2018-02-24T01:08:14.735Z,13.80
2018-02-24T01:10:42.255Z,14.63
2018-02-24T01:13:10.539Z,14.57
2018-02-24T01:15:38.066Z,13.60
2018-02-24T01:18:05.608Z,12.90
2018-02-24T01:20:33.118Z,13.80
2018-02-24T01:23:00.646Z,14.80
2018-02-24T01:25:28.150Z,14.53
2018-02-24T01:27:55.683Z,14.97
2018-02-24T01:30:23.958Z,15.70
2018-02-24T01:32:52.232Z,14.60
2018-02-24T01:35:20.526Z,13.80
2018-02-24T01:37:48.054Z,14.40
2018-02-24T01:40:15.576Z,15.87
2018-02-24T01:42:43.086Z,13.73
2018-02-24T01:45:11.367Z,15.63
2018-02-24T01:47:39.646Z,14.77
2018-02-24T01:50:07.925Z,15.70
2018-02-24T01:52:36.200Z,14.77
2018-02-24T01:55:04.487Z,13.57
2018-02-24T01:57:32.014Z,13.60
2018-02-24T01:59:59.529Z,13.30
2018-02-24T02:02:28.113Z,15.13
2018-02-24T02:04:55.633Z,14.53
2018-02-24T02:07:23.912Z,15.80
2018-02-24T02:09:52.202Z,15.60
2018-02-24T02:12:20.646Z,13.40
2018-02-24T02:14:48.176Z,15.07
2018-02-24T02:17:15.686Z,13.90
2018-02-24T02:19:43.970Z,14.77
2018-02-24T02:22:12.260Z,14.27
2018-02-24T02:24:39.767Z,14.37
2018-02-24T02:27:07.282Z,13.90
2018-02-24T02:29:34.797Z,14.27
2018-02-24T02:32:02.323Z,14.07
2018-02-24T02:34:29.826Z,12.87
2018-02-24T02:36:58.122Z,13.10
2018-02-24T02:39:26.393Z,13.30
2018-02-24T02:41:54.696Z,12.93
2018-02-24T02:44:22.219Z,14.00
2018-02-24T02:46:50.507Z,13.93
2018-02-24T02:49:18.777Z,14.20
2018-02-24T02:51:47.071Z,13.83
2018-02-24T02:54:14.595Z,14.47
2018-02-24T02:56:42.114Z,12.80
2018-02-24T02:59:10.660Z,14.43
2018-02-24T03:01:38.933Z,14.27
2018-02-24T03:04:07.225Z,13.50
2018-02-24T03:06:34.759Z,14.03
2018-02-24T03:09:04.077Z,13.13
2018-02-24T03:11:31.602Z,13.77
2018-02-24T03:13:59.125Z,14.60
2018-02-24T03:16:26.631Z,13.77
2018-02-24T03:18:54.148Z,13.97
2018-02-24T03:21:22.673Z,13.13
2018-02-24T03:23:50.194Z,13.30
2018-02-24T03:26:17.731Z,12.50
2018-02-24T03:28:45.270Z,11.23
2018-02-24T03:31:13.546Z,13.03
2018-02-24T03:33:41.835Z,12.47
2018-02-24T03:36:09.366Z,12.00
2018-02-24T03:38:36.890Z,12.97
2018-02-24T03:41:04.405Z,13.27
2018-02-24T03:43:32.682Z,13.03
2018-02-24T03:46:01.557Z,13.10
2018-02-24T03:48:29.834Z,13.57
2018-02-24T03:50:58.126Z,12.60
2018-02-24T03:53:26.404Z,12.97
2018-02-24T03:55:54.698Z,12.73
2018-02-24T03:58:22.215Z,12.30
2018-02-24T04:00:49.744Z,11.10
2018-02-24T04:03:17.254Z,12.57
2018-02-24T04:05:45.550Z,12.83
2018-02-24T04:08:13.070Z,11.60
2018-02-24T04:10:40.595Z,11.77
2018-02-24T04:13:08.106Z,10.70
2018-02-24T04:15:35.647Z,11.73
2018-02-24T04:18:03.170Z,11.27
2018-02-24T04:20:30.678Z,10.37
2018-02-24T04:22:58.977Z,10.60
2018-02-24T04:25:26.500Z,10.13
2018-02-24T04:27:54.022Z,11.73
2018-02-24T04:30:21.539Z,11.07
2018-02-24T04:32:49.847Z,10.87
2018-02-24T04:35:17.357Z,11.10
2018-02-24T04:37:44.888Z,11.60
2018-02-24T04:40:12.402Z,9.67
2018-02-24T04:42:39.992Z,10.60
2018-02-24T04:45:07.514Z,11.83
2018-02-24T04:47:35.790Z,10.37
2018-02-24T04:50:04.069Z,10.30
2018-02-24T04:52:32.350Z,10.70
2018-02-24T04:55:00.638Z,9.50
2018-02-24T04:57:28.161Z,10.90
2018-02-24T04:59:56.462Z,10.13
2018-02-24T05:02:24.734Z,12.43
2018-02-24T05:04:52.290Z,11.23
2018-02-24T05:07:20.570Z,12.23
2018-02-24T05:09:48.861Z,10.47
2018-02-24T05:12:16.392Z,11.13
2018-02-24T05:14:44.701Z,9.73
2018-02-24T05:17:12.211Z,9.07
2018-02-24T05:19:39.748Z,10.83
2018-02-24T05:22:07.257Z,10.37
2018-02-24T05:24:35.538Z,12.07
2018-02-24T05:27:03.805Z,10.83
2018-02-24T05:29:32.105Z,10.30
2018-02-24T05:31:59.631Z,10.30
2018-02-24T05:34:27.140Z,10.40
2018-02-24T05:36:54.678Z,11.67
2018-02-24T05:39:22.276Z,10.03
2018-02-24T05:41:49.805Z,10.93
2018-02-24T05:44:17.332Z,11.47
2018-02-24T05:46:44.887Z,10.67
2018-02-24T05:49:12.396Z,10.80
2018-02-24T05:51:39.936Z,11.13
2018-02-24T05:54:08.210Z,10.03
2018-02-24T05:56:36.521Z,10.77
2018-02-24T05:59:05.038Z,10.53
2018-02-24T06:01:32.578Z,10.70
2018-02-24T06:04:00.086Z,10.80
2018-02-24T06:06:28.369Z,11.17
2018-02-24T06:08:55.913Z,10.67
2018-02-24T06:11:24.200Z,11.47
2018-02-24T06:13:52.503Z,10.97
2018-02-24T06:16:20.030Z,11.00
2018-02-24T06:18:48.331Z,11.97
2018-02-24T06:21:15.860Z,12.07
2018-02-24T06:23:44.154Z,11.40
2018-02-24T06:26:12.436Z,10.03
2018-02-24T06:28:39.982Z,10.27
2018-02-24T06:31:08.275Z,9.70
2018-02-24T06:33:35.819Z,10.13
2018-02-24T06:36:04.094Z,11.50
2018-02-24T06:38:32.408Z,9.93
2018-02-24T06:40:59.936Z,11.13
2018-02-24T06:43:28.205Z,9.60
2018-02-24T06:45:56.498Z,10.07
2018-02-24T06:48:24.038Z,10.70
2018-02-24T06:50:51.577Z,10.27
2018-02-24T06:53:19.084Z,11.47
2018-02-24T06:55:46.616Z,10.27
2018-02-24T06:58:15.905Z,9.83
2018-02-24T07:00:43.499Z,9.87
2018-02-24T07:03:11.765Z,10.10
2018-02-24T07:05:40.055Z,9.50
2018-02-24T07:08:07.590Z,8.57
2018-02-24T07:10:35.874Z,9.30
2018-02-24T07:13:04.158Z,9.50
2018-02-24T07:15:31.709Z,8.77
2018-02-24T07:17:59.989Z,8.50
2018-02-24T07:20:28.298Z,10.10
2018-02-24T07:22:55.818Z,9.47
2018-02-24T07:25:24.086Z,9.00
2018-02-24T07:27:51.649Z,9.60
2018-02-24T07:30:19.154Z,9.10
2018-02-24T07:32:46.708Z,9.03
2018-02-24T07:35:14.263Z,9.70
2018-02-24T07:37:41.834Z,9.83
2018-02-24T07:40:09.369Z,8.80
2018-02-24T07:42:38.446Z,9.00
2018-02-24T07:45:06.735Z,7.90
2018-02-24T07:47:35.047Z,9.67
2018-02-24T07:50:02.547Z,9.30
2018-02-24T07:52:30.825Z,8.77
2018-02-24T07:54:58.325Z,9.60
2018-02-24T07:57:25.882Z,10.10
2018-02-24T07:59:53.394Z,8.60
2018-02-24T08:02:20.930Z,9.20
2018-02-24T08:04:48.432Z,9.40
2018-02-24T08:07:16.714Z,7.93
2018-02-24T08:09:44.277Z,8.03
2018-02-24T08:12:12.548Z,8.77
2018-02-24T08:14:40.844Z,8.97
2018-02-24T08:17:08.375Z,9.10
2018-02-24T08:19:36.675Z,8.70
2018-02-24T08:22:04.934Z,8.67
2018-02-24T08:24:33.222Z,8.67
2018-02-24T08:27:01.482Z,9.57
2018-02-24T08:29:30.504Z,9.20
2018-02-24T08:31:58.806Z,8.60
2018-02-24T08:34:26.314Z,8.47
2018-02-24T08:36:53.824Z,7.50
2018-02-24T08:39:21.389Z,8.30
2018-02-24T08:41:48.879Z,8.03
2018-02-24T08:44:16.371Z,8.00
2018-02-24T08:46:44.649Z,7.57
2018-02-24T08:49:12.910Z,8.60
2018-02-24T08:51:41.187Z,7.50
2018-02-24T08:54:09.446Z,8.00
2018-02-24T08:56:36.961Z,6.90
2018-02-24T08:59:04.464Z,7.67
2018-02-24T09:01:33.478Z,7.57
2018-02-24T09:04:01.738Z,8.60
2018-02-24T09:06:30.014Z,7.10
2018-02-24T09:08:59.061Z,8.30
2018-02-24T09:11:27.314Z,8.67
2018-02-24T09:13:55.577Z,7.63
2018-02-24T09:16:23.856Z,8.60
2018-02-24T09:18:52.113Z,7.50
2018-02-24T09:21:19.627Z,8.10
2018-02-24T09:23:48.171Z,7.10
2018-02-24T09:26:16.440Z,8.50
2018-02-24T09:28:43.956Z,7.57
2018-02-24T09:31:11.462Z,7.67
2018-02-24T09:33:39.047Z,8.70
2018-02-24T09:36:06.554Z,8.37
2018-02-24T09:38:34.077Z,9.27
2018-02-24T09:41:01.582Z,8.73
2018-02-24T09:43:29.087Z,8.47
2018-02-24T09:45:56.593Z,8.03
2018-02-24T09:48:24.112Z,8.90
2018-02-24T09:50:51.608Z,8.03
2018-02-24T09:53:19.117Z,8.60
2018-02-24T09:55:46.627Z,7.40
2018-02-24T09:58:14.118Z,6.67
2018-02-24T10:00:42.394Z,7.67
2018-02-24T10:03:10.646Z,7.00
2018-02-24T10:05:38.153Z,7.77
2018-02-24T10:08:05.720Z,6.20
2018-02-24T10:10:33.350Z,6.53
2018-02-24T10:13:01.770Z,6.40
2018-02-24T10:15:29.339Z,7.20
2018-02-24T10:17:56.854Z,7.40
2018-02-24T10:20:25.234Z,6.90
2018-02-24T10:22:53.582Z,6.63
2018-02-24T10:25:23.544Z,6.37
2018-02-24T10:27:51.051Z,5.73
2018-02-24T10:30:18.662Z,7.90
2018-02-24T10:32:46.169Z,7.40
2018-02-24T10:35:13.706Z,5.57
2018-02-24T10:37:42.218Z,6.80
2018-02-24T10:40:09.726Z,7.50
2018-02-24T10:42:37.263Z,6.37
2018-02-24T10:45:05.534Z,7.20
2018-02-24T10:47:33.810Z,6.50
2018-02-24T10:50:02.075Z,6.60
2018-02-24T10:52:29.608Z,7.67
2018-02-24T10:54:57.107Z,6.80
2018-02-24T10:57:25.427Z,6.33
2018-02-24T10:59:52.921Z,7.10
2018-02-24T11:02:20.443Z,6.70
2018-02-24T11:04:48.071Z,5.77
2018-02-24T11:07:16.385Z,6.30
2018-02-24T11:09:44.018Z,6.37
2018-02-24T11:12:11.531Z,5.60
2018-02-24T11:14:39.091Z,6.20
2018-02-24T11:17:06.604Z,6.50
2018-02-24T11:19:34.205Z,7.30
2018-02-24T11:22:01.848Z,7.03
2018-02-24T11:24:30.235Z,7.40
2018-02-24T11:26:57.814Z,7.30
2018-02-24T11:29:25.705Z,6.60
2018-02-24T11:31:53.983Z,6.17
2018-02-24T11:34:22.323Z,6.43
2018-02-24T11:36:50.245Z,6.33
2018-02-24T11:39:18.530Z,6.23
2018-02-24T11:41:46.046Z,6.80
2018-02-24T11:44:13.546Z,7.10
2018-02-24T11:46:41.914Z,6.43
2018-02-24T11:49:10.267Z,6.03
2018-02-24T11:51:38.579Z,6.43
2018-02-24T11:54:06.830Z,6.40
2018-02-24T11:56:34.341Z,6.33
2018-02-24T11:59:01.887Z,6.13
2018-02-24T12:01:30.281Z,6.10
2018-02-24T12:03:59.425Z,6.07
2018-02-24T12:06:27.739Z,6.80
2018-02-24T12:08:55.295Z,8.00
2018-02-24T12:11:23.673Z,6.40
2018-02-24T12:13:51.298Z,6.70
2018-02-24T12:16:18.794Z,5.97
2018-02-24T12:18:46.318Z,8.73
2018-02-24T12:21:13.869Z,6.63
2018-02-24T12:23:42.623Z,6.00
2018-02-24T12:26:10.252Z,8.03
2018-02-24T12:28:38.600Z,6.53
2018-02-24T12:31:06.150Z,5.47
2018-02-24T12:33:33.701Z,6.00
2018-02-24T12:36:01.858Z,5.97
2018-02-24T12:38:30.254Z,6.17
2018-02-24T12:40:57.746Z,5.20
2018-02-24T12:43:25.367Z,5.30
2018-02-24T12:45:53.110Z,4.90
2018-02-24T12:48:20.618Z,5.87
2018-02-24T12:50:48.118Z,4.90
2018-02-24T12:53:15.622Z,5.50
2018-02-24T12:55:43.139Z,5.07
2018-02-24T12:58:10.646Z,5.40
2018-02-24T13:00:38.150Z,4.80
2018-02-24T13:03:05.706Z,5.90
2018-02-24T13:05:33.227Z,5.80
2018-02-24T13:08:00.741Z,5.53
2018-02-24T13:10:28.243Z,6.17
2018-02-24T13:12:55.769Z,5.97
2018-02-24T13:15:24.280Z,5.97
2018-02-24T13:17:51.814Z,6.30
2018-02-24T13:20:20.262Z,6.97
2018-02-24T13:22:48.534Z,5.77
2018-02-24T13:25:16.879Z,6.07
2018-02-24T13:27:45.355Z,6.30
2018-02-24T13:30:12.926Z,5.93
2018-02-24T13:32:40.418Z,6.30
2018-02-24T13:35:08.748Z,6.30
2018-02-24T13:37:36.276Z,6.20
2018-02-24T13:40:03.840Z,6.90
2018-02-24T13:42:31.332Z,6.03
2018-02-24T13:44:58.860Z,5.57
2018-02-24T13:47:26.378Z,5.80
2018-02-24T13:49:55.649Z,5.37
2018-02-24T13:52:23.174Z,5.43
2018-02-24T13:54:50.686Z,5.83
2018-02-24T13:57:18.975Z,6.57
2018-02-24T13:59:46.530Z,6.73
2018-02-24T14:02:14.815Z,6.00
2018-02-24T14:04:43.066Z,6.30
2018-02-24T14:07:10.598Z,7.73
2018-02-24T14:09:38.108Z,5.80
2018-02-24T14:12:06.906Z,5.57
2018-02-24T14:14:35.182Z,7.50
2018-02-24T14:17:03.444Z,6.20
2018-02-24T14:19:31.723Z,6.50
2018-02-24T14:21:59.983Z,6.20
2018-02-24T14:24:27.484Z,5.80
2018-02-24T14:26:54.987Z,6.00
2018-02-24T14:29:22.479Z,6.00
2018-02-24T14:31:50.038Z,6.03
2018-02-24T14:34:18.296Z,6.07
2018-02-24T14:36:45.812Z,5.77
2018-02-24T14:39:13.298Z,5.30
2018-02-24T14:41:40.806Z,5.13
2018-02-24T14:44:08.323Z,5.30
2018-02-24T14:46:35.830Z,4.70
2018-02-24T14:49:03.404Z,5.10
2018-02-24T14:51:30.919Z,4.73
2018-02-24T14:53:59.998Z,4.00
2018-02-24T14:56:27.507Z,5.27
2018-02-24T14:58:55.055Z,4.87
2018-02-24T15:01:23.302Z,4.67
2018-02-24T15:03:50.958Z,4.90
2018-02-24T15:06:18.522Z,4.30
2018-02-24T15:08:46.017Z,4.10
2018-02-24T15:11:13.535Z,4.33
2018-02-24T15:13:41.038Z,3.53
2018-02-24T15:16:08.542Z,3.77
2018-02-24T15:18:36.046Z,3.83
2018-02-24T15:21:04.307Z,4.20
2018-02-24T15:23:32.578Z,3.80
2018-02-24T15:26:01.862Z,3.90
2018-02-24T15:28:29.365Z,3.00
2018-02-24T15:30:56.873Z,3.40
2018-02-24T15:33:24.383Z,3.57
2018-02-24T15:35:51.896Z,3.40
2018-02-24T15:38:19.426Z,4.30
2018-02-24T15:40:46.918Z,4.60
2018-02-24T15:43:14.427Z,3.90
2018-02-24T15:45:41.938Z,4.13
2018-02-24T15:48:09.422Z,4.27
2018-02-24T15:50:37.690Z,3.77
2018-02-24T15:53:05.962Z,3.60
2018-02-24T15:55:33.510Z,4.30
2018-02-24T15:58:00.995Z,3.60
2018-02-24T16:00:29.266Z,3.83
2018-02-24T16:02:57.519Z,4.47
2018-02-24T16:05:25.099Z,4.10
2018-02-24T16:07:53.355Z,4.80
2018-02-24T16:10:20.972Z,4.57
2018-02-24T16:12:48.477Z,4.93
2018-02-24T16:15:15.983Z,6.47
2018-02-24T16:17:43.523Z,5.17
2018-02-24T16:20:11.787Z,4.90
2018-02-24T16:22:40.066Z,5.23
2018-02-24T16:25:08.334Z,5.70
2018-02-24T16:27:35.926Z,5.03
2018-02-24T16:30:03.438Z,5.53
2018-02-24T16:32:30.948Z,6.43
2018-02-24T16:34:58.451Z,5.70
2018-02-24T16:37:25.956Z,6.63
2018-02-24T16:39:54.233Z,5.73
2018-02-24T16:42:21.814Z,5.63
2018-02-24T16:44:49.309Z,5.33
2018-02-24T16:47:16.829Z,6.70
2018-02-24T16:49:44.371Z,6.10
2018-02-24T16:52:11.890Z,5.30
2018-02-24T16:54:39.490Z,5.83
2018-02-24T16:57:07.002Z,5.87
2018-02-24T16:59:34.528Z,5.80
2018-02-24T17:02:02.043Z,5.70
2018-02-24T17:04:30.363Z,4.90
2018-02-24T17:06:57.894Z,5.50
2018-02-24T17:09:26.183Z,5.63
2018-02-24T17:11:53.702Z,5.10
2018-02-24T17:14:22.743Z,5.07
2018-02-24T17:16:50.267Z,5.97
2018-02-24T17:19:19.465Z,5.40
2018-02-24T17:21:47.791Z,6.33
2018-02-24T17:24:15.283Z,6.63
2018-02-24T17:26:42.790Z,5.80
2018-02-24T17:29:10.303Z,6.53
2018-02-24T17:31:37.824Z,5.90
2018-02-24T17:34:05.335Z,5.43
2018-02-24T17:36:32.841Z,5.40
2018-02-24T17:39:00.338Z,6.10
2018-02-24T17:41:27.964Z,5.93
2018-02-24T17:43:55.471Z,5.80
2018-02-24T17:46:24.504Z,4.70
2018-02-24T17:48:52.014Z,5.13
2018-02-24T17:51:19.528Z,5.20
2018-02-24T17:53:47.042Z,5.23
2018-02-24T17:56:15.306Z,5.67
2018-02-24T17:58:42.838Z,5.37
2018-02-24T18:01:10.334Z,5.17
2018-02-24T18:03:37.844Z,5.13
2018-02-24T18:06:05.376Z,5.50
2018-02-24T18:08:33.643Z,5.23
2018-02-24T18:11:01.926Z,5.80
2018-02-24T18:13:30.227Z,5.27
2018-02-24T18:15:57.756Z,5.70
2018-02-24T18:18:27.034Z,5.67
2018-02-24T18:20:54.656Z,4.70
2018-02-24T18:23:22.151Z,5.50
2018-02-24T18:25:49.660Z,5.03
2018-02-24T18:28:17.183Z,5.03
2018-02-24T18:30:45.463Z,6.20
2018-02-24T18:33:14.467Z,5.77
2018-02-24T18:35:42.726Z,6.30
2018-02-24T18:38:10.242Z,6.70
2018-02-24T18:40:37.735Z,5.77
2018-02-24T18:43:05.243Z,6.03
2018-02-24T18:45:32.740Z,5.60
2018-02-24T18:48:00.246Z,5.50
2018-02-24T18:50:28.508Z,6.63
2018-02-24T18:52:56.806Z,6.13
2018-02-24T18:55:24.322Z,5.70
2018-02-24T18:57:51.835Z,5.97
2018-02-24T19:00:19.343Z,4.90
2018-02-24T19:02:46.878Z,4.97
2018-02-24T19:05:14.368Z,6.70
2018-02-24T19:07:41.857Z,4.97
2018-02-24T19:10:10.126Z,5.30
2018-02-24T19:12:38.379Z,4.63
2018-02-24T19:15:05.888Z,5.00
2018-02-24T19:17:33.394Z,5.17
2018-02-24T19:20:00.919Z,4.70
2018-02-24T19:22:28.438Z,5.50
2018-02-24T19:24:56.710Z,5.30
2018-02-24T19:27:25.024Z,5.63
2018-02-24T19:29:52.530Z,5.77
2018-02-24T19:32:20.804Z,4.80
2018-02-24T19:34:48.325Z,4.40
2018-02-24T19:37:16.840Z,5.30
2018-02-24T19:39:44.343Z,4.10
2018-02-24T19:42:11.870Z,4.70
2018-02-24T19:44:41.054Z,4.50
2018-02-24T19:47:08.559Z,4.00
2018-02-24T19:49:36.098Z,5.10
2018-02-24T19:52:04.378Z,4.97
2018-02-24T19:54:32.627Z,4.57
2018-02-24T19:57:00.134Z,5.00
2018-02-24T19:59:27.644Z,4.47
2018-02-24T20:01:55.159Z,4.57
2018-02-24T20:04:22.654Z,3.63
2018-02-24T20:06:50.166Z,4.30
2018-02-24T20:09:17.670Z,3.10
2018-02-24T20:11:45.212Z,3.50
2018-02-24T20:14:12.728Z,3.40
2018-02-24T20:16:40.996Z,3.30
2018-02-24T20:19:09.285Z,3.60
2018-02-24T20:21:37.550Z,3.23
2018-02-24T20:24:05.867Z,2.97
2018-02-24T20:26:33.358Z,2.50
2018-02-24T20:29:00.878Z,3.00
2018-02-24T20:31:28.375Z,2.47
2018-02-24T20:33:55.929Z,2.60
2018-02-24T20:36:24.243Z,3.40
2018-02-24T20:38:52.523Z,2.93
2018-02-24T20:41:20.802Z,2.57
2018-02-24T20:43:49.081Z,2.80
2018-02-24T20:46:17.350Z,2.80
2018-02-24T20:48:45.617Z,2.83
2018-02-24T20:51:13.889Z,3.10
2018-02-24T20:53:41.395Z,3.10
2018-02-24T20:56:08.898Z,2.60
2018-02-24T20:58:36.402Z,2.10
2018-02-24T21:01:03.928Z,2.63
2018-02-24T21:03:32.206Z,2.77
2018-02-24T21:06:00.503Z,3.07
2018-02-24T21:08:28.766Z,2.17
2018-02-24T21:10:57.138Z,2.17
2018-02-24T21:13:24.646Z,2.20
2018-02-24T21:15:52.140Z,2.10
2018-02-24T21:18:20.458Z,2.03
2018-02-24T21:20:48.027Z,2.20
2018-02-24T21:23:15.546Z,2.07
2018-02-24T21:25:43.039Z,2.70
2018-02-24T21:28:10.568Z,2.47
2018-02-24T21:30:38.055Z,2.30
2018-02-24T21:33:05.566Z,2.37
2018-02-24T21:35:33.079Z,1.80
2018-02-24T21:38:00.590Z,2.07
2018-02-24T21:40:28.100Z,2.17
2018-02-24T21:42:55.618Z,2.10
2018-02-24T21:45:23.130Z,1.90
2018-02-24T21:47:50.638Z,2.20
2018-02-24T21:50:18.151Z,2.47
2018-02-24T21:52:46.663Z,2.37
2018-02-24T21:55:14.187Z,2.17
2018-02-24T21:57:41.677Z,2.17
2018-02-24T22:00:09.249Z,2.23
2018-02-24T22:02:36.727Z,2.20
2018-02-24T22:05:05.026Z,2.60
2018-02-24T22:07:32.552Z,2.90
2018-02-24T22:10:00.242Z,2.17
2018-02-24T22:12:27.766Z,2.73
2018-02-24T22:14:55.254Z,2.50
2018-02-24T22:17:23.539Z,2.30
2018-02-24T22:19:51.054Z,2.40
2018-02-24T22:22:18.592Z,1.93
2018-02-24T22:24:46.143Z,2.20
2018-02-24T22:27:13.668Z,2.30
2018-02-24T22:29:41.933Z,2.43
2018-02-24T22:34:17.106Z,2.62
2018-02-24T22:36:44.622Z,2.77
2018-02-24T22:39:12.137Z,2.07
2018-02-24T22:41:39.663Z,3.47
2018-02-24T22:44:07.939Z,1.83
2018-02-24T22:46:36.202Z,2.10
2018-02-24T22:49:03.727Z,2.10
2018-02-24T22:51:31.222Z,2.57
2018-02-24T22:53:58.734Z,2.00
2018-02-24T22:56:26.230Z,2.40
2018-02-24T22:58:55.258Z,1.87
2018-02-24T23:01:22.779Z,2.30
2018-02-24T23:03:50.286Z,2.35
2018-02-24T23:06:17.813Z,2.57
2018-02-24T23:08:45.300Z,2.30
2018-02-24T23:11:12.826Z,2.30
2018-02-24T23:13:40.322Z,3.27
2018-02-24T23:16:07.837Z,2.20
2018-02-24T23:18:35.351Z,2.20
2018-02-24T23:21:02.854Z,2.53
2018-02-24T23:23:30.388Z,1.70
2018-02-24T23:25:57.882Z,2.50
2018-02-24T23:28:25.430Z,2.00
2018-02-24T23:30:52.986Z,1.90
2018-02-24T23:33:20.505Z,2.03
2018-02-24T23:35:48.018Z,1.70
2018-02-24T23:38:15.518Z,1.90
2018-02-24T23:40:43.035Z,2.50
2018-02-24T23:43:10.540Z,2.80
2018-02-24T23:45:38.081Z,1.93
2018-02-24T23:48:05.608Z,2.10
2018-02-24T23:50:33.110Z,2.40
2018-02-24T23:53:00.631Z,2.60
2018-02-24T23:55:28.131Z,2.40
2018-02-24T23:57:55.649Z,2.40
